Air Sicilia Virtual Airways - Route

Air Sicilia Virtual Airways - SIC094L

( ES ) LEMH
Menorca Airport
MENORCA ISLAND ( MAH )
plane_to ( ES ) LESB
Son Bonet Airport
MALLORCA ISLAND ( )
Mediterraneo TOUR VFR - LEG: 14

AIRPORT NEAR NAVIGATION AIDS

Type Name Frequency
VOR-DME Menorca 112600 KHZ
NDB Menorca 344 KHZ

METAR / TAF
LEMH 151730Z 02011KT 350V060 9999 FEW048 26/15 Q1012
LEMH 151400Z 1515/1615 01012KT 9999 FEW030 TX30/1612Z TN21/1605Z BECMG 1518/1520 30008KT BECMG 1605/1607 01010KT BECMG 1613/1615 10008KT

RUNWAY INFORMATION

Runway Runway length Runway width Runway elevation Runway displaced threshold Runway heading
01L 7710 148 277 0 9
19R 7710 148 298 0 189
01R 6890 148 272 0 9
19L 6890 148 298 0 189

AIRPORT FREQUENCIES

Type Name Frequency
APP APP 119.65 MHZ
ATIS ATIS 112.6 MHZ
GND GND 121.75 MHZ
TWR TWR 118.2 MHZ

AIRPORT NEAR NAVIGATION AIDS

Type Name Frequency

METAR / TAF
LESB 151730Z AUTO 07010KT 040V110 CAVOK 29/16 Q1012

RUNWAY INFORMATION

Runway Runway length Runway width Runway elevation Runway displaced threshold Runway heading
06 3281 72 0 0 49.1
24 3281 72 0 0 229.1

AIRPORT FREQUENCIES

Type Name Frequency
APP PALMA APP 119.4 MHZ
OPS PALMA OPS 130.25 MHZ
TWR PALMA TWR 118.3 MHZ

Flightplan

passando per POLLENCA

Air Sicilia Virtual Airways Fleets

AVAILABLE AIRCRAFTS for route at this time in Menorca Airport
C172 - Cessna 172 Skyhawk
( US ) Cessna

Aircraft in fleet: 13

163 NM

Distance in nautical miles.

€ 100,00

Ticket price for this flight.

Nr. 14

Leg



12-11-2018
Aerosoft Airport Rio de Janeiro International V2.0 XP

L'Aeroporto Internazionale di Rio de Janeiro-Galeão (IATA: GIG, ICAO: SBGL), costruito nel 1952 nel quartiere di Ilha do Governador ed intitolato al musicista Antônio Carlos Jobim, è il principale aeroporto internazio ....


15-10-2018
Aerosoft A320 Family professional

La gamma di aeromobili A320 è una delle più comuni nei cieli. Questi aerei di linea a doppio-getto a corto e medio raggio si sono dimostrati convenienti, affidabili e prontamente disponibili, rendendoli le opzioni migl ....


10-10-2018
Motore critico ( Critical Engine )

Il motore critico di un velivolo ad ala fissa multi-motore è il motore che, in caso di guasto, influirebbe negativamente sulle prestazioni o sulla capacità di manovra di un aereo. Sui velivoli ad elica, vi è un ....


04-10-2018
Aerosoft Dortmund XP

Scopri il centro della regione della Ruhr su XPlane 11 - lo scenario Dortmund XP è una ricostruzione completa della città di Dortmund per il simulatore di volo targato Laminar. Oltre all'intera area urbana di Dortmu ....


07-08-2018
Aerosoft Professional Flight Planner PFPX

PFPX - Professional Flight Planner X - è un nuovo ed innovativo strumento di pianificazione del volo sviluppato da piloti e dispatcher del mondo reale. È un'aggiunta preziosa e realistica alla tua esperienza di simulaz ....